sensor_id;sensor_type;location;lat;lon;timestamp;temperature;humidity
29539;DHT22;16482;51.046;4.498;2023-03-01T00:00:28;22.60;21.80
29539;DHT22;16482;51.046;4.498;2023-03-01T00:03:03;22.50;21.80
29539;DHT22;16482;51.046;4.498;2023-03-01T00:05:29;22.60;21.90
29539;DHT22;16482;51.046;4.498;2023-03-01T00:08:04;22.50;22.00
29539;DHT22;16482;51.046;4.498;2023-03-01T00:10:30;22.50;21.90
29539;DHT22;16482;51.046;4.498;2023-03-01T00:12:59;22.50;21.90
29539;DHT22;16482;51.046;4.498;2023-03-01T00:15:30;22.50;21.90
29539;DHT22;16482;51.046;4.498;2023-03-01T00:18:03;22.50;22.00
29539;DHT22;16482;51.046;4.498;2023-03-01T00:20:29;22.50;22.00
29539;DHT22;16482;51.046;4.498;2023-03-01T00:22:58;22.50;22.00
29539;DHT22;16482;51.046;4.498;2023-03-01T00:25:27;22.50;22.00
29539;DHT22;16482;51.046;4.498;2023-03-01T00:27:59;22.40;22.00
29539;DHT22;16482;51.046;4.498;2023-03-01T00:30:28;22.40;22.00
29539;DHT22;16482;51.046;4.498;2023-03-01T00:33:03;22.40;22.00
29539;DHT22;16482;51.046;4.498;2023-03-01T00:35:32;22.40;22.00
29539;DHT22;16482;51.046;4.498;2023-03-01T00:37:59;22.40;22.00
29539;DHT22;16482;51.046;4.498;2023-03-01T00:40:35;22.40;22.00
29539;DHT22;16482;51.046;4.498;2023-03-01T00:43:02;22.40;22.00
29539;DHT22;16482;51.046;4.498;2023-03-01T00:45:28;22.40;22.00
29539;DHT22;16482;51.046;4.498;2023-03-01T00:47:59;22.40;22.00
29539;DHT22;16482;51.046;4.498;2023-03-01T00:50:30;22.40;22.00
29539;DHT22;16482;51.046;4.498;2023-03-01T00:52:59;22.40;22.00
29539;DHT22;16482;51.046;4.498;2023-03-01T00:55:34;22.30;22.00
29539;DHT22;16482;51.046;4.498;2023-03-01T00:58:01;22.40;22.00
29539;DHT22;16482;51.046;4.498;2023-03-01T01:00:29;22.40;22.10
29539;DHT22;16482;51.046;4.498;2023-03-01T01:03:04;22.30;22.00
29539;DHT22;16482;51.046;4.498;2023-03-01T01:05:30;22.30;22.00
29539;DHT22;16482;51.046;4.498;2023-03-01T01:08:03;22.30;22.00
29539;DHT22;16482;51.046;4.498;2023-03-01T01:10:29;22.30;22.00
29539;DHT22;16482;51.046;4.498;2023-03-01T01:13:03;22.30;22.10
29539;DHT22;16482;51.046;4.498;2023-03-01T01:15:33;22.30;22.10
29539;DHT22;16482;51.046;4.498;2023-03-01T01:18:00;22.20;22.10
29539;DHT22;16482;51.046;4.498;2023-03-01T01:20:29;22.30;22.10
29539;DHT22;16482;51.046;4.498;2023-03-01T01:23:00;22.20;22.10
29539;DHT22;16482;51.046;4.498;2023-03-01T01:25:28;22.20;22.10
29539;DHT22;16482;51.046;4.498;2023-03-01T01:27:57;22.20;22.10
29539;DHT22;16482;51.046;4.498;2023-03-01T01:30:31;22.20;22.10
29539;DHT22;16482;51.046;4.498;2023-03-01T01:32:59;22.20;22.10
29539;DHT22;16482;51.046;4.498;2023-03-01T01:35:32;22.20;22.10
29539;DHT22;16482;51.046;4.498;2023-03-01T01:37:58;22.20;22.20
29539;DHT22;16482;51.046;4.498;2023-03-01T01:40:32;22.20;22.10
29539;DHT22;16482;51.046;4.498;2023-03-01T01:43:00;22.20;22.10
29539;DHT22;16482;51.046;4.498;2023-03-01T01:45:34;22.10;22.20
29539;DHT22;16482;51.046;4.498;2023-03-01T01:48:10;22.20;22.20
29539;DHT22;16482;51.046;4.498;2023-03-01T01:50:39;22.20;22.20
29539;DHT22;16482;51.046;4.498;2023-03-01T01:53:16;22.20;22.20
29539;DHT22;16482;51.046;4.498;2023-03-01T01:55:45;22.10;22.20
29539;DHT22;16482;51.046;4.498;2023-03-01T01:58:17;22.10;22.20
29539;DHT22;16482;51.046;4.498;2023-03-01T02:00:43;22.10;22.20
29539;DHT22;16482;51.046;4.498;2023-03-01T02:03:12;22.10;22.20
29539;DHT22;16482;51.046;4.498;2023-03-01T02:05:52;22.10;22.20
29539;DHT22;16482;51.046;4.498;2023-03-01T02:08:21;22.10;22.20
29539;DHT22;16482;51.046;4.498;2023-03-01T02:10:49;22.10;22.20
29539;DHT22;16482;51.046;4.498;2023-03-01T02:13:16;22.10;22.20
29539;DHT22;16482;51.046;4.498;2023-03-01T02:15:42;22.10;22.20
29539;DHT22;16482;51.046;4.498;2023-03-01T02:18:13;22.10;22.20
29539;DHT22;16482;51.046;4.498;2023-03-01T02:23:27;22.00;22.20
29539;DHT22;16482;51.046;4.498;2023-03-01T02:28:40;22.00;22.30
29539;DHT22;16482;51.046;4.498;2023-03-01T02:31:08;22.00;22.20
29539;DHT22;16482;51.046;4.498;2023-03-01T02:33:53;22.00;22.30
29539;DHT22;16482;51.046;4.498;2023-03-01T02:36:24;22.00;22.30
29539;DHT22;16482;51.046;4.498;2023-03-01T02:38:54;22.00;22.30
29539;DHT22;16482;51.046;4.498;2023-03-01T02:41:23;22.00;22.30
29539;DHT22;16482;51.046;4.498;2023-03-01T02:43:51;22.00;22.30
29539;DHT22;16482;51.046;4.498;2023-03-01T02:46:22;22.00;22.30
29539;DHT22;16482;51.046;4.498;2023-03-01T02:48:56;22.00;22.30
29539;DHT22;16482;51.046;4.498;2023-03-01T02:54:33;22.00;22.30
29539;DHT22;16482;51.046;4.498;2023-03-01T02:57:08;22.00;22.30
29539;DHT22;16482;51.046;4.498;2023-03-01T02:59:37;21.90;22.30
29539;DHT22;16482;51.046;4.498;2023-03-01T03:02:22;21.90;22.30
29539;DHT22;16482;51.046;4.498;2023-03-01T03:05:30;21.90;22.30
29539;DHT22;16482;51.046;4.498;2023-03-01T03:08:00;21.90;22.30
29539;DHT22;16482;51.046;4.498;2023-03-01T03:10:33;21.90;22.30
29539;DHT22;16482;51.046;4.498;2023-03-01T03:13:09;21.90;22.30
29539;DHT22;16482;51.046;4.498;2023-03-01T03:15:35;21.90;22.30
29539;DHT22;16482;51.046;4.498;2023-03-01T03:18:06;21.90;22.40
29539;DHT22;16482;51.046;4.498;2023-03-01T03:20:33;21.90;22.30
29539;DHT22;16482;51.046;4.498;2023-03-01T03:22:59;21.90;22.30
29539;DHT22;16482;51.046;4.498;2023-03-01T03:25:34;21.90;22.30
29539;DHT22;16482;51.046;4.498;2023-03-01T03:28:04;21.80;22.30
29539;DHT22;16482;51.046;4.498;2023-03-01T03:30:37;21.90;22.30
29539;DHT22;16482;51.046;4.498;2023-03-01T03:33:05;21.80;22.30
29539;DHT22;16482;51.046;4.498;2023-03-01T03:35:39;21.80;22.30
29539;DHT22;16482;51.046;4.498;2023-03-01T03:38:07;21.80;22.30
29539;DHT22;16482;51.046;4.498;2023-03-01T03:40:45;21.90;22.30
29539;DHT22;16482;51.046;4.498;2023-03-01T03:43:17;21.90;22.40
29539;DHT22;16482;51.046;4.498;2023-03-01T03:45:48;21.80;22.30
29539;DHT22;16482;51.046;4.498;2023-03-01T03:48:14;21.80;22.30
29539;DHT22;16482;51.046;4.498;2023-03-01T03:50:48;21.80;22.30
29539;DHT22;16482;51.046;4.498;2023-03-01T03:53:15;21.80;22.30
29539;DHT22;16482;51.046;4.498;2023-03-01T03:55:41;21.80;22.30
29539;DHT22;16482;51.046;4.498;2023-03-01T03:58:08;21.80;22.30
29539;DHT22;16482;51.046;4.498;2023-03-01T04:00:41;21.80;22.30
29539;DHT22;16482;51.046;4.498;2023-03-01T04:03:08;21.80;22.30
29539;DHT22;16482;51.046;4.498;2023-03-01T04:05:35;21.80;22.40
29539;DHT22;16482;51.046;4.498;2023-03-01T04:08:01;21.80;22.40
29539;DHT22;16482;51.046;4.498;2023-03-01T04:10:29;21.80;22.30
29539;DHT22;16482;51.046;4.498;2023-03-01T04:13:05;21.80;22.30
29539;DHT22;16482;51.046;4.498;2023-03-01T04:15:32;21.70;22.30
29539;DHT22;16482;51.046;4.498;2023-03-01T04:18:01;21.80;22.40
29539;DHT22;16482;51.046;4.498;2023-03-01T04:20:29;21.80;22.40
29539;DHT22;16482;51.046;4.498;2023-03-01T04:23:08;21.70;22.40
29539;DHT22;16482;51.046;4.498;2023-03-01T04:25:41;21.70;22.40
29539;DHT22;16482;51.046;4.498;2023-03-01T04:28:08;21.70;22.40
29539;DHT22;16482;51.046;4.498;2023-03-01T04:30:36;21.70;22.30
29539;DHT22;16482;51.046;4.498;2023-03-01T04:33:06;21.70;22.40
29539;DHT22;16482;51.046;4.498;2023-03-01T04:35:33;21.70;22.40
29539;DHT22;16482;51.046;4.498;2023-03-01T04:38:00;21.70;22.40
29539;DHT22;16482;51.046;4.498;2023-03-01T04:40:29;21.70;22.40
29539;DHT22;16482;51.046;4.498;2023-03-01T04:43:04;21.70;22.50
29539;DHT22;16482;51.046;4.498;2023-03-01T04:45:31;21.70;22.40
29539;DHT22;16482;51.046;4.498;2023-03-01T04:47:57;21.70;22.40
29539;DHT22;16482;51.046;4.498;2023-03-01T04:50:31;21.70;22.40
29539;DHT22;16482;51.046;4.498;2023-03-01T04:52:57;21.70;22.50
29539;DHT22;16482;51.046;4.498;2023-03-01T04:55:31;21.70;22.50
29539;DHT22;16482;51.046;4.498;2023-03-01T04:58:04;21.70;22.50
29539;DHT22;16482;51.046;4.498;2023-03-01T05:00:30;21.60;22.50
29539;DHT22;16482;51.046;4.498;2023-03-01T05:03:00;21.60;22.50
29539;DHT22;16482;51.046;4.498;2023-03-01T05:05:35;21.60;22.50
29539;DHT22;16482;51.046;4.498;2023-03-01T05:08:07;21.60;22.50
29539;DHT22;16482;51.046;4.498;2023-03-01T05:10:35;21.60;22.50
29539;DHT22;16482;51.046;4.498;2023-03-01T05:13:03;21.60;22.50
29539;DHT22;16482;51.046;4.498;2023-03-01T05:15:31;21.60;22.30
29539;DHT22;16482;51.046;4.498;2023-03-01T05:18:00;21.60;22.60
29539;DHT22;16482;51.046;4.498;2023-03-01T05:20:29;21.60;22.70
29539;DHT22;16482;51.046;4.498;2023-03-01T05:23:05;21.60;22.80
29539;DHT22;16482;51.046;4.498;2023-03-01T05:25:32;21.70;23.00
29539;DHT22;16482;51.046;4.498;2023-03-01T05:28:01;21.70;23.00
29539;DHT22;16482;51.046;4.498;2023-03-01T05:30:31;21.70;23.10
29539;DHT22;16482;51.046;4.498;2023-03-01T05:32:58;21.70;23.10
29539;DHT22;16482;51.046;4.498;2023-03-01T05:35:33;21.80;23.20
29539;DHT22;16482;51.046;4.498;2023-03-01T05:37:59;21.80;23.10
29539;DHT22;16482;51.046;4.498;2023-03-01T05:40:33;21.80;23.10
29539;DHT22;16482;51.046;4.498;2023-03-01T05:43:01;21.90;23.20
29539;DHT22;16482;51.046;4.498;2023-03-01T05:45:31;22.00;23.20
29539;DHT22;16482;51.046;4.498;2023-03-01T05:48:00;22.00;23.10
29539;DHT22;16482;51.046;4.498;2023-03-01T05:50:36;22.00;23.10
29539;DHT22;16482;51.046;4.498;2023-03-01T05:53:05;22.10;23.10
29539;DHT22;16482;51.046;4.498;2023-03-01T05:55:34;22.20;23.10
29539;DHT22;16482;51.046;4.498;2023-03-01T05:58:04;22.20;23.10
29539;DHT22;16482;51.046;4.498;2023-03-01T06:00:31;22.30;23.10
29539;DHT22;16482;51.046;4.498;2023-03-01T06:03:01;22.30;23.00
29539;DHT22;16482;51.046;4.498;2023-03-01T06:05:35;22.30;23.00
29539;DHT22;16482;51.046;4.498;2023-03-01T06:08:02;22.40;23.00
29539;DHT22;16482;51.046;4.498;2023-03-01T06:10:31;22.40;23.00
29539;DHT22;16482;51.046;4.498;2023-03-01T06:12:59;22.40;22.90
29539;DHT22;16482;51.046;4.498;2023-03-01T06:15:34;22.50;23.00
29539;DHT22;16482;51.046;4.498;2023-03-01T06:18:03;22.50;23.00
29539;DHT22;16482;51.046;4.498;2023-03-01T06:20:29;22.50;23.00
29539;DHT22;16482;51.046;4.498;2023-03-01T06:23:00;22.60;23.00
29539;DHT22;16482;51.046;4.498;2023-03-01T06:25:29;22.60;23.00
29539;DHT22;16482;51.046;4.498;2023-03-01T06:27:58;22.60;23.00
29539;DHT22;16482;51.046;4.498;2023-03-01T06:30:31;22.60;23.00
29539;DHT22;16482;51.046;4.498;2023-03-01T06:32:59;22.60;23.00
29539;DHT22;16482;51.046;4.498;2023-03-01T06:35:29;22.60;23.00
29539;DHT22;16482;51.046;4.498;2023-03-01T06:38:01;22.60;22.90
29539;DHT22;16482;51.046;4.498;2023-03-01T06:40:30;22.70;23.00
29539;DHT22;16482;51.046;4.498;2023-03-01T06:42:59;22.70;23.10
29539;DHT22;16482;51.046;4.498;2023-03-01T06:45:34;22.70;23.10
29539;DHT22;16482;51.046;4.498;2023-03-01T06:48:04;22.70;23.10
29539;DHT22;16482;51.046;4.498;2023-03-01T06:50:31;22.70;23.00
29539;DHT22;16482;51.046;4.498;2023-03-01T06:53:04;22.70;23.00
29539;DHT22;16482;51.046;4.498;2023-03-01T06:55:31;22.70;23.00
29539;DHT22;16482;51.046;4.498;2023-03-01T06:58:06;22.70;23.00
29539;DHT22;16482;51.046;4.498;2023-03-01T07:00:32;22.70;23.10
29539;DHT22;16482;51.046;4.498;2023-03-01T07:02:59;22.80;23.10
29539;DHT22;16482;51.046;4.498;2023-03-01T07:05:33;22.80;23.10
29539;DHT22;16482;51.046;4.498;2023-03-01T07:07:59;22.80;23.10
29539;DHT22;16482;51.046;4.498;2023-03-01T07:10:33;22.80;23.10
29539;DHT22;16482;51.046;4.498;2023-03-01T07:13:02;22.80;23.10
29539;DHT22;16482;51.046;4.498;2023-03-01T07:15:30;22.80;23.20
29539;DHT22;16482;51.046;4.498;2023-03-01T07:18:01;22.80;23.40
29539;DHT22;16482;51.046;4.498;2023-03-01T07:20:27;22.80;23.30
29539;DHT22;16482;51.046;4.498;2023-03-01T07:23:01;22.90;23.40
29539;DHT22;16482;51.046;4.498;2023-03-01T07:25:29;22.90;23.50
29539;DHT22;16482;51.046;4.498;2023-03-01T07:28:13;22.90;23.60
29539;DHT22;16482;51.046;4.498;2023-03-01T07:30:39;23.00;23.60
29539;DHT22;16482;51.046;4.498;2023-03-01T07:33:05;23.00;23.70
29539;DHT22;16482;51.046;4.498;2023-03-01T07:35:31;23.00;23.70
29539;DHT22;16482;51.046;4.498;2023-03-01T07:37:58;23.00;23.70
29539;DHT22;16482;51.046;4.498;2023-03-01T07:40:27;23.00;23.70
29539;DHT22;16482;51.046;4.498;2023-03-01T07:42:59;23.10;23.80
29539;DHT22;16482;51.046;4.498;2023-03-01T07:45:29;23.10;23.80
29539;DHT22;16482;51.046;4.498;2023-03-01T07:48:04;23.20;23.90
29539;DHT22;16482;51.046;4.498;2023-03-01T07:50:30;23.30;23.70
29539;DHT22;16482;51.046;4.498;2023-03-01T07:53:01;23.30;24.10
29539;DHT22;16482;51.046;4.498;2023-03-01T07:55:30;23.30;27.30
29539;DHT22;16482;51.046;4.498;2023-03-01T07:58:03;23.40;28.00
29539;DHT22;16482;51.046;4.498;2023-03-01T08:00:30;23.50;26.10
29539;DHT22;16482;51.046;4.498;2023-03-01T08:03:03;23.50;25.50
29539;DHT22;16482;51.046;4.498;2023-03-01T08:05:32;23.50;25.00
29539;DHT22;16482;51.046;4.498;2023-03-01T08:08:00;23.50;24.90
29539;DHT22;16482;51.046;4.498;2023-03-01T08:10:36;23.60;24.70
29539;DHT22;16482;51.046;4.498;2023-03-01T08:13:02;23.60;24.60
29539;DHT22;16482;51.046;4.498;2023-03-01T08:15:30;23.60;24.50
29539;DHT22;16482;51.046;4.498;2023-03-01T08:17:59;23.60;24.50
29539;DHT22;16482;51.046;4.498;2023-03-01T08:20:33;23.60;24.40
29539;DHT22;16482;51.046;4.498;2023-03-01T08:22:59;23.60;24.40
29539;DHT22;16482;51.046;4.498;2023-03-01T08:25:28;23.60;24.20
29539;DHT22;16482;51.046;4.498;2023-03-01T08:28:02;23.70;24.40
29539;DHT22;16482;51.046;4.498;2023-03-01T08:30:30;23.60;24.60
29539;DHT22;16482;51.046;4.498;2023-03-01T08:32:59;23.60;24.70
29539;DHT22;16482;51.046;4.498;2023-03-01T08:35:32;23.60;24.90
29539;DHT22;16482;51.046;4.498;2023-03-01T08:38:01;23.60;25.50
29539;DHT22;16482;51.046;4.498;2023-03-01T08:40:34;23.50;25.60
29539;DHT22;16482;51.046;4.498;2023-03-01T08:43:00;23.50;25.40
29539;DHT22;16482;51.046;4.498;2023-03-01T08:45:29;23.50;25.20
29539;DHT22;16482;51.046;4.498;2023-03-01T08:48:00;23.50;25.20
29539;DHT22;16482;51.046;4.498;2023-03-01T08:50:33;23.50;25.20
29539;DHT22;16482;51.046;4.498;2023-03-01T08:52:59;23.50;25.20
29539;DHT22;16482;51.046;4.498;2023-03-01T08:55:28;23.50;25.10
29539;DHT22;16482;51.046;4.498;2023-03-01T08:58:04;23.40;25.10
29539;DHT22;16482;51.046;4.498;2023-03-01T09:00:30;23.40;24.90
29539;DHT22;16482;51.046;4.498;2023-03-01T09:03:05;23.40;24.90
29539;DHT22;16482;51.046;4.498;2023-03-01T09:05:32;23.40;24.80
29539;DHT22;16482;51.046;4.498;2023-03-01T09:08:01;23.40;24.80
29539;DHT22;16482;51.046;4.498;2023-03-01T09:10:30;23.30;24.80
29539;DHT22;16482;51.046;4.498;2023-03-01T09:12:59;23.30;24.80
29539;DHT22;16482;51.046;4.498;2023-03-01T09:15:30;23.30;24.80
29539;DHT22;16482;51.046;4.498;2023-03-01T09:18:05;23.30;24.70
29539;DHT22;16482;51.046;4.498;2023-03-01T09:20:32;23.40;24.80
29539;DHT22;16482;51.046;4.498;2023-03-01T09:23:01;23.30;24.70
29539;DHT22;16482;51.046;4.498;2023-03-01T09:25:27;23.30;24.70
29539;DHT22;16482;51.046;4.498;2023-03-01T09:28:01;23.30;24.80
29539;DHT22;16482;51.046;4.498;2023-03-01T09:30:30;23.30;24.90
29539;DHT22;16482;51.046;4.498;2023-03-01T09:33:02;23.30;25.00
29539;DHT22;16482;51.046;4.498;2023-03-01T09:35:30;23.20;24.80
29539;DHT22;16482;51.046;4.498;2023-03-01T09:37:59;23.20;24.50
29539;DHT22;16482;51.046;4.498;2023-03-01T09:40:32;23.20;24.30
29539;DHT22;16482;51.046;4.498;2023-03-01T09:45:54;23.20;24.40
29539;DHT22;16482;51.046;4.498;2023-03-01T09:48:24;23.10;24.40
29539;DHT22;16482;51.046;4.498;2023-03-01T09:50:51;23.10;24.30
29539;DHT22;16482;51.046;4.498;2023-03-01T09:53:32;23.10;24.40
29539;DHT22;16482;51.046;4.498;2023-03-01T09:56:29;23.10;24.50
29539;DHT22;16482;51.046;4.498;2023-03-01T10:01:47;23.10;24.10
29539;DHT22;16482;51.046;4.498;2023-03-01T10:04:24;23.00;23.60
29539;DHT22;16482;51.046;4.498;2023-03-01T10:09:41;22.90;23.70
29539;DHT22;16482;51.046;4.498;2023-03-01T10:12:16;22.90;23.80
29539;DHT22;16482;51.046;4.498;2023-03-01T10:20:43;22.80;23.50
29539;DHT22;16482;51.046;4.498;2023-03-01T10:23:11;22.80;23.50
29539;DHT22;16482;51.046;4.498;2023-03-01T10:26:00;22.80;23.40
29539;DHT22;16482;51.046;4.498;2023-03-01T10:28:54;22.70;23.30
29539;DHT22;16482;51.046;4.498;2023-03-01T10:31:30;22.70;23.30
29539;DHT22;16482;51.046;4.498;2023-03-01T10:34:07;22.70;23.30
29539;DHT22;16482;51.046;4.498;2023-03-01T10:36:33;22.70;23.50
29539;DHT22;16482;51.046;4.498;2023-03-01T10:39:26;22.60;23.50
29539;DHT22;16482;51.046;4.498;2023-03-01T10:45:36;22.60;23.50
29539;DHT22;16482;51.046;4.498;2023-03-01T10:48:19;22.50;23.30
29539;DHT22;16482;51.046;4.498;2023-03-01T10:50:51;22.50;23.20
29539;DHT22;16482;51.046;4.498;2023-03-01T10:58:28;22.60;22.90
29539;DHT22;16482;51.046;4.498;2023-03-01T11:00:57;22.60;22.80
29539;DHT22;16482;51.046;4.498;2023-03-01T11:03:34;22.60;22.80
29539;DHT22;16482;51.046;4.498;2023-03-01T11:08:54;22.50;22.90
29539;DHT22;16482;51.046;4.498;2023-03-01T11:11:28;22.50;23.00
29539;DHT22;16482;51.046;4.498;2023-03-01T11:14:00;22.50;23.10
29539;DHT22;16482;51.046;4.498;2023-03-01T11:16:39;22.50;23.10
29539;DHT22;16482;51.046;4.498;2023-03-01T11:21:39;22.50;23.10
29539;DHT22;16482;51.046;4.498;2023-03-01T11:24:11;22.50;23.00
29539;DHT22;16482;51.046;4.498;2023-03-01T11:26:44;22.50;22.90
29539;DHT22;16482;51.046;4.498;2023-03-01T11:29:32;22.40;22.90
29539;DHT22;16482;51.046;4.498;2023-03-01T11:32:13;22.40;23.00
29539;DHT22;16482;51.046;4.498;2023-03-01T11:37:41;22.40;22.90
29539;DHT22;16482;51.046;4.498;2023-03-01T11:40:39;22.40;23.00
29539;DHT22;16482;51.046;4.498;2023-03-01T11:43:30;22.40;23.00
29539;DHT22;16482;51.046;4.498;2023-03-01T11:46:41;22.40;22.90
29539;DHT22;16482;51.046;4.498;2023-03-01T11:49:12;22.40;23.00
29539;DHT22;16482;51.046;4.498;2023-03-01T11:55:15;22.40;22.90
29539;DHT22;16482;51.046;4.498;2023-03-01T12:17:23;22.30;22.80
29539;DHT22;16482;51.046;4.498;2023-03-01T12:40:12;22.20;22.70
29539;DHT22;16482;51.046;4.498;2023-03-01T12:43:13;22.20;22.80
29539;DHT22;16482;51.046;4.498;2023-03-01T12:51:06;22.30;22.90
29539;DHT22;16482;51.046;4.498;2023-03-01T12:53:39;22.30;22.80
29539;DHT22;16482;51.046;4.498;2023-03-01T12:56:08;22.20;23.00
29539;DHT22;16482;51.046;4.498;2023-03-01T12:58:56;22.30;22.90
29539;DHT22;16482;51.046;4.498;2023-03-01T13:20:33;22.30;22.80
29539;DHT22;16482;51.046;4.498;2023-03-01T13:33:54;22.30;22.80
29539;DHT22;16482;51.046;4.498;2023-03-01T13:39:26;22.30;22.90
29539;DHT22;16482;51.046;4.498;2023-03-01T13:41:54;22.30;22.90
29539;DHT22;16482;51.046;4.498;2023-03-01T13:44:50;22.30;22.80
29539;DHT22;16482;51.046;4.498;2023-03-01T13:47:18;22.30;22.90
29539;DHT22;16482;51.046;4.498;2023-03-01T13:50:00;22.30;22.80
29539;DHT22;16482;51.046;4.498;2023-03-01T13:52:44;22.30;22.80
29539;DHT22;16482;51.046;4.498;2023-03-01T13:55:42;22.30;22.80
29539;DHT22;16482;51.046;4.498;2023-03-01T13:58:23;22.30;22.80
29539;DHT22;16482;51.046;4.498;2023-03-01T14:01:04;22.30;22.80
29539;DHT22;16482;51.046;4.498;2023-03-01T14:03:32;22.30;22.80
29539;DHT22;16482;51.046;4.498;2023-03-01T14:08:28;22.30;22.80
29539;DHT22;16482;51.046;4.498;2023-03-01T14:21:22;22.30;22.80
29539;DHT22;16482;51.046;4.498;2023-03-01T14:23:52;22.30;22.80
29539;DHT22;16482;51.046;4.498;2023-03-01T14:26:22;22.30;22.80
29539;DHT22;16482;51.046;4.498;2023-03-01T14:28:52;22.30;22.70
29539;DHT22;16482;51.046;4.498;2023-03-01T14:31:38;22.30;22.80
29539;DHT22;16482;51.046;4.498;2023-03-01T14:34:05;22.30;22.80
29539;DHT22;16482;51.046;4.498;2023-03-01T14:36:33;22.30;22.70
29539;DHT22;16482;51.046;4.498;2023-03-01T14:38:59;22.30;22.70
29539;DHT22;16482;51.046;4.498;2023-03-01T14:41:34;22.30;22.60
29539;DHT22;16482;51.046;4.498;2023-03-01T14:44:07;22.30;22.50
29539;DHT22;16482;51.046;4.498;2023-03-01T14:46:43;22.30;22.40
29539;DHT22;16482;51.046;4.498;2023-03-01T14:49:17;22.30;22.50
29539;DHT22;16482;51.046;4.498;2023-03-01T14:52:02;22.20;22.40
29539;DHT22;16482;51.046;4.498;2023-03-01T14:54:48;22.20;22.40
29539;DHT22;16482;51.046;4.498;2023-03-01T14:57:26;22.20;22.40
29539;DHT22;16482;51.046;4.498;2023-03-01T14:59:54;22.20;22.40
29539;DHT22;16482;51.046;4.498;2023-03-01T15:02:31;22.10;22.20
29539;DHT22;16482;51.046;4.498;2023-03-01T15:05:01;22.10;22.20
29539;DHT22;16482;51.046;4.498;2023-03-01T15:07:32;22.10;22.20
29539;DHT22;16482;51.046;4.498;2023-03-01T15:10:04;22.10;22.20
29539;DHT22;16482;51.046;4.498;2023-03-01T15:12:38;22.10;22.20
29539;DHT22;16482;51.046;4.498;2023-03-01T15:15:43;22.10;22.20
29539;DHT22;16482;51.046;4.498;2023-03-01T15:20:45;22.20;22.20
29539;DHT22;16482;51.046;4.498;2023-03-01T15:25:48;22.20;22.30
29539;DHT22;16482;51.046;4.498;2023-03-01T15:28:23;22.20;22.30
29539;DHT22;16482;51.046;4.498;2023-03-01T15:30:58;22.20;22.40
29539;DHT22;16482;51.046;4.498;2023-03-01T15:35:54;22.20;22.40
29539;DHT22;16482;51.046;4.498;2023-03-01T15:38:36;22.20;22.30
29539;DHT22;16482;51.046;4.498;2023-03-01T15:41:26;22.20;22.50
29539;DHT22;16482;51.046;4.498;2023-03-01T15:43:54;22.20;22.50
29539;DHT22;16482;51.046;4.498;2023-03-01T15:46:25;22.20;22.50
29539;DHT22;16482;51.046;4.498;2023-03-01T15:48:57;22.20;22.40
29539;DHT22;16482;51.046;4.498;2023-03-01T15:51:35;22.20;22.50
29539;DHT22;16482;51.046;4.498;2023-03-01T15:54:23;22.20;22.50
29539;DHT22;16482;51.046;4.498;2023-03-01T15:56:50;22.20;22.50
29539;DHT22;16482;51.046;4.498;2023-03-01T15:59:17;22.20;22.60
29539;DHT22;16482;51.046;4.498;2023-03-01T16:01:44;22.20;22.60
29539;DHT22;16482;51.046;4.498;2023-03-01T16:04:15;22.20;22.70
29539;DHT22;16482;51.046;4.498;2023-03-01T16:06:50;22.20;22.70
29539;DHT22;16482;51.046;4.498;2023-03-01T16:09:22;22.20;22.50
29539;DHT22;16482;51.046;4.498;2023-03-01T16:11:52;22.20;22.50
29539;DHT22;16482;51.046;4.498;2023-03-01T16:14:18;22.20;22.60
29539;DHT22;16482;51.046;4.498;2023-03-01T16:16:45;22.20;22.80
29539;DHT22;16482;51.046;4.498;2023-03-01T16:19:11;22.30;23.00
29539;DHT22;16482;51.046;4.498;2023-03-01T16:21:38;22.30;23.10
29539;DHT22;16482;51.046;4.498;2023-03-01T16:24:05;22.40;23.30
29539;DHT22;16482;51.046;4.498;2023-03-01T16:26:32;22.40;23.30
29539;DHT22;16482;51.046;4.498;2023-03-01T16:28:58;22.40;23.30
29539;DHT22;16482;51.046;4.498;2023-03-01T16:31:24;22.40;23.40
29539;DHT22;16482;51.046;4.498;2023-03-01T16:33:55;22.50;23.50
29539;DHT22;16482;51.046;4.498;2023-03-01T16:36:26;22.50;23.40
29539;DHT22;16482;51.046;4.498;2023-03-01T16:38:54;22.50;23.50
29539;DHT22;16482;51.046;4.498;2023-03-01T16:41:23;22.60;23.50
29539;DHT22;16482;51.046;4.498;2023-03-01T16:43:50;22.60;23.50
29539;DHT22;16482;51.046;4.498;2023-03-01T16:46:24;22.60;23.60
29539;DHT22;16482;51.046;4.498;2023-03-01T16:48:52;22.70;23.80
29539;DHT22;16482;51.046;4.498;2023-03-01T16:51:22;22.70;23.70
29539;DHT22;16482;51.046;4.498;2023-03-01T16:53:51;22.70;23.70
29539;DHT22;16482;51.046;4.498;2023-03-01T16:56:25;22.70;23.70
29539;DHT22;16482;51.046;4.498;2023-03-01T16:58:51;22.70;23.70
29539;DHT22;16482;51.046;4.498;2023-03-01T17:01:26;22.70;23.70
29539;DHT22;16482;51.046;4.498;2023-03-01T17:04:00;22.80;23.80
29539;DHT22;16482;51.046;4.498;2023-03-01T17:06:26;22.80;23.90
29539;DHT22;16482;51.046;4.498;2023-03-01T17:08:58;22.80;23.80
29539;DHT22;16482;51.046;4.498;2023-03-01T17:11:24;22.80;23.80
29539;DHT22;16482;51.046;4.498;2023-03-01T17:13:53;22.80;23.80
29539;DHT22;16482;51.046;4.498;2023-03-01T17:16:22;22.80;23.90
29539;DHT22;16482;51.046;4.498;2023-03-01T17:18:55;22.80;23.90
29539;DHT22;16482;51.046;4.498;2023-03-01T17:21:24;22.80;24.10
29539;DHT22;16482;51.046;4.498;2023-03-01T17:23:55;22.90;24.20
29539;DHT22;16482;51.046;4.498;2023-03-01T17:26:23;22.90;24.10
29539;DHT22;16482;51.046;4.498;2023-03-01T17:28:59;22.90;24.20
29539;DHT22;16482;51.046;4.498;2023-03-01T17:31:25;22.90;24.20
29539;DHT22;16482;51.046;4.498;2023-03-01T17:33:50;22.90;24.30
29539;DHT22;16482;51.046;4.498;2023-03-01T17:36:24;22.90;24.40
29539;DHT22;16482;51.046;4.498;2023-03-01T17:38:58;22.90;24.50
29539;DHT22;16482;51.046;4.498;2023-03-01T17:41:24;23.00;24.60
29539;DHT22;16482;51.046;4.498;2023-03-01T17:43:52;22.90;24.50
29539;DHT22;16482;51.046;4.498;2023-03-01T17:46:23;23.00;24.50
29539;DHT22;16482;51.046;4.498;2023-03-01T17:48:59;23.00;24.40
29539;DHT22;16482;51.046;4.498;2023-03-01T17:51:25;23.00;24.60
29539;DHT22;16482;51.046;4.498;2023-03-01T17:53:53;23.00;24.50
29539;DHT22;16482;51.046;4.498;2023-03-01T17:56:22;23.00;24.60
29539;DHT22;16482;51.046;4.498;2023-03-01T17:58:55;23.00;24.60
29539;DHT22;16482;51.046;4.498;2023-03-01T18:01:24;23.00;24.70
29539;DHT22;16482;51.046;4.498;2023-03-01T18:03:51;23.00;24.70
29539;DHT22;16482;51.046;4.498;2023-03-01T18:06:36;23.10;24.70
29539;DHT22;16482;51.046;4.498;2023-03-01T18:09:02;23.10;24.80
29539;DHT22;16482;51.046;4.498;2023-03-01T18:11:28;23.10;24.80
29539;DHT22;16482;51.046;4.498;2023-03-01T18:13:55;23.10;24.90
29539;DHT22;16482;51.046;4.498;2023-03-01T18:16:24;23.10;25.00
29539;DHT22;16482;51.046;4.498;2023-03-01T18:18:54;23.10;25.10